Details for Ryanair at LEVC




Go Back


Latest METAR
Local Time

LEVC 220930Z 31004KT 270V010 CAVOK 28/18 Q1022 NOSIG
22/09/2018, 11:41:09

Description
Results
Ryanair Logo
Number of Pilots based at LEVC
0 Pilots Based here
Number of Ryanair Flights Departed from LEVC
10 Flights Departed
Number of Ryanair Flights Arrived at LEVC
10 Flights Arrived
Number of Ryanair Schedules Departing from LEVC
98 Schedules
Number of Ryanair Schedules Arriving at LEVC
97 Schedules
Number of Ryanair Schedules Departing from LEVC availible today
23 Schedules Today
Number of Ryanair Schedules Arriving at LEVC availible today
23 Schedules Today
Average Landing Rate at LEVC
-203 fpm
Ryanair Average Landing Rate at LEVC
-197 fpm
Total Fuel Purchased at LEVC by Ryanair
40,288.52 kgs / 88,820.07 lbs

Pilots Based at LEVC


Pilot ID
Pilot Name
Pilot Rank
No. of Flights
No. of Flying Hours
There are no pilots assigned to this hub!   Will you be the first?
Content